createdAt,value
2022-12-11T00:04:48.700Z,68
2022-12-11T00:09:49.184Z,68
2022-12-11T00:14:48.763Z,90
2022-12-11T00:19:49.207Z,90
2022-12-11T00:24:48.951Z,45
2022-12-11T00:29:49.322Z,45
2022-12-11T00:34:48.850Z,90
2022-12-11T00:39:48.778Z,90
2022-12-11T00:44:49.169Z,22
2022-12-11T00:49:50.474Z,22
2022-12-11T00:54:49.039Z,22
2022-12-11T00:59:49.511Z,22
2022-12-11T01:04:49.118Z,22
2022-12-11T01:09:49.644Z,22
2022-12-11T01:14:49.087Z,22
2022-12-11T01:19:48.747Z,22
2022-12-11T01:24:48.982Z,22
2022-12-11T01:29:49.649Z,22
2022-12-11T01:34:49.174Z,22
2022-12-11T01:39:49.537Z,22
2022-12-11T01:44:49.000Z,22
2022-12-11T08:14:49.637Z,68
2022-12-11T08:19:49.094Z,68
2022-12-11T08:24:49.617Z,68
2022-12-11T08:29:49.019Z,68
2022-12-11T08:34:49.353Z,68
2022-12-11T08:39:49.110Z,68
2022-12-11T08:44:49.614Z,68
2022-12-11T08:49:48.933Z,68
2022-12-11T08:54:49.823Z,90
2022-12-11T08:59:51.146Z,90
2022-12-11T09:04:49.112Z,45
2022-12-11T09:09:50.055Z,45
2022-12-11T09:14:49.071Z,90
2022-12-11T09:19:49.937Z,90
2022-12-11T09:24:49.088Z,68
2022-12-11T09:29:49.601Z,68
2022-12-11T09:34:49.671Z,90
2022-12-11T09:39:49.976Z,90
2022-12-11T09:44:49.446Z,112
2022-12-11T09:49:49.179Z,112
2022-12-11T09:54:49.853Z,112
2022-12-11T09:59:49.013Z,112
2022-12-11T10:04:49.855Z,112
2022-12-11T10:09:49.493Z,112
2022-12-11T10:14:50.116Z,112
2022-12-11T10:19:49.574Z,112
2022-12-11T10:25:12.728Z,135
2022-12-11T10:29:49.349Z,135
2022-12-11T10:34:49.314Z,90
2022-12-11T10:39:49.878Z,90
2022-12-11T10:44:49.875Z,158
2022-12-11T10:49:49.706Z,158
2022-12-11T10:54:49.195Z,112
2022-12-11T10:59:49.594Z,112
2022-12-11T11:04:49.040Z,112
2022-12-11T11:09:50.027Z,112
2022-12-11T11:14:49.444Z,112
2022-12-11T11:19:49.034Z,112
2022-12-11T11:24:49.478Z,90
2022-12-11T11:29:53.546Z,90
2022-12-11T11:34:50.108Z,112
2022-12-11T11:39:49.534Z,112
2022-12-11T11:44:49.059Z,68
2022-12-11T11:49:49.514Z,68
2022-12-11T11:54:49.898Z,112
2022-12-11T11:59:49.307Z,112
2022-12-11T12:04:49.712Z,135
2022-12-11T12:09:49.320Z,135
2022-12-11T12:14:52.963Z,225
2022-12-11T12:19:49.447Z,225
2022-12-11T12:24:50.024Z,180
2022-12-11T12:29:49.342Z,180
2022-12-11T12:34:49.868Z,112
2022-12-11T12:39:49.668Z,112
2022-12-11T12:44:50.041Z,158
2022-12-11T12:49:49.572Z,158
2022-12-11T12:54:50.014Z,225
2022-12-11T12:59:49.367Z,225
2022-12-11T13:04:56.774Z,225
2022-12-11T13:09:49.217Z,225
2022-12-11T13:14:49.851Z,225
2022-12-11T13:19:49.303Z,225
2022-12-11T13:24:49.979Z,158
2022-12-11T13:29:49.510Z,158
2022-12-11T13:34:49.940Z,135
2022-12-11T13:39:49.867Z,135
2022-12-11T13:44:49.607Z,68
2022-12-11T13:49:49.198Z,68
2022-12-11T13:54:49.720Z,90
2022-12-11T13:59:49.169Z,90
2022-12-11T14:04:49.533Z,90
2022-12-11T14:09:50.113Z,90
2022-12-11T14:14:49.730Z,90
2022-12-11T14:19:49.319Z,90
2022-12-11T14:24:49.813Z,225
2022-12-11T14:29:50.153Z,225
2022-12-11T14:34:49.549Z,225
2022-12-11T14:39:49.926Z,225
2022-12-11T14:44:49.619Z,225
2022-12-11T14:49:49.187Z,225
2022-12-11T14:54:49.539Z,225
2022-12-11T14:59:49.511Z,225
2022-12-11T15:04:50.103Z,225
2022-12-11T15:09:49.657Z,225
2022-12-11T15:14:50.045Z,225
2022-12-11T15:19:49.283Z,225
2022-12-11T15:24:49.314Z,225
2022-12-11T15:29:49.415Z,225
2022-12-11T15:34:49.759Z,225
2022-12-11T15:39:49.726Z,225
2022-12-11T15:44:50.128Z,225
2022-12-11T15:49:49.930Z,225
2022-12-11T15:54:49.629Z,225
2022-12-11T15:59:50.097Z,225
2022-12-11T16:04:49.530Z,225
2022-12-11T16:09:50.026Z,225
2022-12-11T16:14:49.776Z,225
2022-12-11T16:19:49.427Z,225
2022-12-11T16:24:50.124Z,225
2022-12-11T16:29:49.604Z,225
2022-12-11T16:34:50.055Z,225
2022-12-11T16:39:49.608Z,225
2022-12-11T16:44:49.460Z,225
2022-12-11T16:49:49.868Z,225
2022-12-11T16:54:49.308Z,225
2022-12-11T16:59:49.792Z,225
2022-12-11T17:04:54.404Z,225
2022-12-11T17:09:49.804Z,225
2022-12-11T17:14:49.427Z,225
2022-12-11T17:19:50.061Z,225
2022-12-11T17:24:54.609Z,225
2022-12-11T17:29:50.001Z,225
2022-12-11T17:34:49.389Z,225
2022-12-11T17:39:49.892Z,225
2022-12-11T17:44:49.313Z,225
2022-12-11T17:49:49.790Z,225
2022-12-11T17:54:49.460Z,225
2022-12-11T17:59:49.756Z,225
2022-12-11T18:04:50.273Z,225
2022-12-11T18:09:49.608Z,225
2022-12-11T18:14:50.019Z,225
2022-12-11T18:19:49.431Z,225
2022-12-11T18:24:49.811Z,225
2022-12-11T18:29:50.168Z,225
2022-12-11T18:34:49.598Z,225
2022-12-11T18:39:50.248Z,225
2022-12-11T18:44:50.089Z,225
2022-12-11T18:49:49.438Z,225
2022-12-11T18:54:49.885Z,225
2022-12-11T18:59:50.094Z,225
2022-12-11T19:04:49.371Z,225
2022-12-11T19:09:50.063Z,225
2022-12-11T19:14:48.819Z,225
2022-12-11T19:19:50.310Z,225
2022-12-11T19:24:49.592Z,225
2022-12-11T19:29:49.985Z,225
2022-12-11T19:34:50.256Z,225
2022-12-11T19:39:50.099Z,225
2022-12-11T19:44:49.372Z,225
2022-12-11T19:49:49.907Z,225
2022-12-11T19:54:50.208Z,225
2022-12-11T19:59:57.562Z,225
2022-12-11T20:04:49.947Z,248
2022-12-11T20:09:50.110Z,248
2022-12-11T20:14:49.476Z,248
2022-12-11T20:19:49.859Z,248
2022-12-11T20:24:49.750Z,248
2022-12-11T20:29:50.201Z,248
2022-12-11T20:34:49.584Z,248
2022-12-11T20:39:50.102Z,248
2022-12-11T20:44:49.993Z,248
2022-12-11T20:49:49.456Z,248
2022-12-11T20:54:50.090Z,248
2022-12-11T20:59:49.659Z,248
2022-12-11T21:04:49.890Z,248
2022-12-11T21:09:49.965Z,248
2022-12-11T21:14:49.981Z,248
2022-12-11T21:19:49.539Z,248
2022-12-11T21:24:50.050Z,248
2022-12-11T21:29:50.131Z,248
2022-12-11T21:34:49.934Z,248
2022-12-11T21:39:49.481Z,248
2022-12-11T21:46:01.734Z,248
2022-12-11T21:49:49.837Z,248
2022-12-11T21:54:56.254Z,248
2022-12-11T21:59:50.065Z,248
2022-12-11T22:04:50.009Z,248
2022-12-11T22:09:49.440Z,248
2022-12-11T22:14:50.203Z,248
2022-12-11T22:19:49.690Z,248
2022-12-11T22:24:49.994Z,248
2022-12-11T22:29:50.337Z,248
2022-12-11T22:34:49.681Z,248
2022-12-11T22:39:49.872Z,248
2022-12-11T22:44:50.286Z,248
2022-12-11T22:49:49.904Z,248
2022-12-11T22:54:49.410Z,248
2022-12-11T22:59:50.164Z,248
2022-12-11T23:04:50.108Z,248
2022-12-11T23:09:50.526Z,248
2022-12-11T23:14:49.941Z,248
2022-12-11T23:19:50.038Z,248
2022-12-11T23:24:49.560Z,248
2022-12-11T23:29:49.905Z,248
2022-12-11T23:34:50.292Z,248
2022-12-11T23:39:50.265Z,248
2022-12-11T23:44:49.680Z,248
2022-12-11T23:49:49.959Z,248
2022-12-11T23:54:50.307Z,248
2022-12-11T23:59:49.568Z,248
